Euless, TX (76040)

10:54 PM CDT on August 16, 2017 (GMT -0500)
Oakwood Terrace North | | Change Station

Elev 582 ft 32.83 °N, 97.12 °W | Updated 9 seconds ago

Clear
Clear
87.4 °F
Feels Like 92 °F
N
0.0
Wind Variable Wind from West
Gusts 1.3 mph

Today
High -- | Low -- °F
--% Chance of Precip.
Yesterday
High -- | Low -- °F
Precip. -- in
Pressure 29.83 in
Visibility 10.0 miles
Clouds Few 10000 ft
Heat Index 92 °F
Dew Point 69 °F
Humidity 55%
Rainfall 0.00 in
Snow Depth Not available.
6:52 AM 8:12 PM
Waning Crescent, 27% visible
METAR KDFW 170253Z 18009KT 10SM FEW100 32/21 A2986 RMK AO2 SLP099 T03220211 53007
Pressure 29.83 in
Visibility 10.0 miles
Clouds Few 10000 ft
Heat Index 92 °F
Dew Point 69 °F
Humidity 55%
Rainfall 0.00 in
Snow Depth Not available.
6:52 AM 8:12 PM
Waning Crescent, 27% visible
METAR KDFW 170253Z 18009KT 10SM FEW100 32/21 A2986 RMK AO2 SLP099 T03220211 53007

Get Severe Weather Alerts

Thanks for signing up!

Be on the lookout for a verification email in your inbox.

You'll start receiving the daily forecast at 6 AM.

×

10-Day Weather Forecast

Almanac

Astronomy

Aug. 16, 2017 Rise Set
Actual Time
Civil Twilight
Nautical Twilight
Astronomical Twilight
Moon
Length of Visible Light
Length of Day
Tomorrow will be .
, % of the Moon is Illuminated

Today's Extremes

State Highs State Lows

Community

WunderPhotos

Category 6

Welcome to Category 6. This is the collective home for Weather Underground's featured writeups by Dr. Jeff Masters (right), Bob Henson (left), Chris Burt, and other regular contributors.

Nearby

Air Quality

  Air Quality AQ Index Pollutant
Not available.

Snow Depth

Station Depth Elevation

Earthquake Activity

City Distance Mag. Time & Date
Minimum magnitude displayed is 2.5.

Coastal Water Temperatures

Place Temperature

Stations

Nearby Weather Stations

Station Location Temp. Windchill Dew Point Humidity Wind Precip. Elev Updated Type
                   

Watches & Warnings

There are currently no watches in effect.